createdAt,value
2023-03-12T00:01:24.176Z,1.30
2023-03-12T00:03:54.830Z,0.90
2023-03-12T00:06:28.110Z,1.70
2023-03-12T00:08:58.267Z,1.40
2023-03-12T00:11:26.390Z,1.60
2023-03-12T00:13:56.074Z,1.30
2023-03-12T00:16:26.718Z,1.30
2023-03-12T00:18:57.733Z,1.40
2023-03-12T00:21:26.086Z,1.30
2023-03-12T00:23:54.296Z,1.40
2023-03-12T00:26:22.733Z,1.60
2023-03-12T00:28:53.926Z,1.30
2023-03-12T00:31:27.701Z,1.20
2023-03-12T00:33:57.464Z,1.50
2023-03-12T00:36:27.093Z,1.40
2023-03-12T00:38:55.989Z,1.10
2023-03-12T00:41:27.251Z,1.50
2023-03-12T00:43:56.002Z,1.60
2023-03-12T00:46:24.371Z,1.60
2023-03-12T00:48:52.623Z,1.50
2023-03-12T00:51:25.713Z,2.00
2023-03-12T00:56:25.720Z,1.80
2023-03-12T00:58:53.874Z,1.80
2023-03-12T01:01:22.203Z,1.60
2023-03-12T01:03:52.321Z,1.90
2023-03-12T01:06:21.638Z,1.60
2023-03-12T01:08:52.742Z,1.70
2023-03-12T01:11:23.172Z,1.80
2023-03-12T01:13:51.365Z,1.40
2023-03-12T01:16:19.977Z,1.90
2023-03-12T01:18:53.571Z,1.70
2023-03-12T01:21:21.695Z,2.10
2023-03-12T01:23:49.819Z,1.50
2023-03-12T01:26:18.035Z,1.80
2023-03-12T01:28:46.214Z,1.70
2023-03-12T01:31:19.087Z,2.00
2023-03-12T01:33:52.318Z,1.70
2023-03-12T01:36:22.857Z,1.70
2023-03-12T01:38:55.159Z,1.60
2023-03-12T01:41:24.125Z,2.00
2023-03-12T01:43:52.552Z,1.30
2023-03-12T01:46:36.992Z,1.50
2023-03-12T01:49:16.675Z,1.80
2023-03-12T01:52:03.524Z,1.60
2023-03-12T01:54:50.538Z,1.60
2023-03-12T01:57:31.706Z,1.90
2023-03-12T02:00:02.205Z,1.10
2023-03-12T02:02:33.007Z,1.40
2023-03-12T02:05:07.361Z,1.70
2023-03-12T02:07:37.885Z,1.50
2023-03-12T02:10:08.766Z,1.10
2023-03-12T02:12:37.729Z,1.30
2023-03-12T02:15:06.913Z,2.20
2023-03-12T02:17:40.545Z,1.40
2023-03-12T02:20:12.464Z,1.60
2023-03-12T02:22:41.336Z,1.20
2023-03-12T02:25:34.884Z,1.40
2023-03-12T02:28:08.541Z,1.30
2023-03-12T02:30:43.271Z,1.10
2023-03-12T02:33:15.388Z,1.80
2023-03-12T02:35:45.075Z,1.40
2023-03-12T02:38:32.245Z,1.30
2023-03-12T02:41:06.024Z,1.70
2023-03-12T02:43:41.663Z,1.50
2023-03-12T02:48:40.473Z,1.20
2023-03-12T02:51:09.075Z,0.70
2023-03-12T02:53:37.247Z,1.00
2023-03-12T02:56:06.943Z,1.20
2023-03-12T02:58:37.534Z,1.10
2023-03-12T03:01:09.174Z,0.90
2023-03-12T03:03:40.054Z,0.70
2023-03-12T03:06:08.855Z,0.50
2023-03-12T03:08:43.715Z,0.70
2023-03-12T03:11:12.386Z,0.60
2023-03-12T03:13:40.815Z,0.80
2023-03-12T03:16:12.479Z,0.80
2023-03-12T03:18:42.428Z,0.80
2023-03-12T03:21:14.527Z,0.60
2023-03-12T03:23:46.544Z,0.90
2023-03-12T03:26:15.109Z,0.90
2023-03-12T03:28:45.524Z,0.80
2023-03-12T03:31:13.924Z,0.90
2023-03-12T03:33:42.317Z,0.70
2023-03-12T03:36:14.923Z,0.90
2023-03-12T03:38:50.671Z,1.20
2023-03-12T03:41:19.900Z,0.80
2023-03-12T03:43:50.147Z,1.40
2023-03-12T03:46:19.872Z,0.70
2023-03-12T03:54:59.215Z,0.80
2023-03-12T03:59:45.517Z,0.80
2023-03-12T04:02:14.275Z,0.60
2023-03-12T04:06:01.582Z,0.70
2023-03-12T04:08:32.972Z,0.90
2023-03-12T04:11:09.388Z,1.00
2023-03-12T04:13:38.630Z,1.00
2023-03-12T04:16:14.274Z,0.90
2023-03-12T04:18:43.385Z,0.90
2023-03-12T04:21:13.232Z,1.10
2023-03-12T04:23:41.944Z,1.00
2023-03-12T04:26:10.740Z,1.10
2023-03-12T04:28:42.205Z,0.80
2023-03-12T04:31:11.202Z,1.10
2023-03-12T04:33:43.069Z,1.30
2023-03-12T04:36:11.917Z,1.20
2023-03-12T04:38:43.857Z,1.20
2023-03-12T04:41:13.354Z,1.00
2023-03-12T04:43:48.359Z,1.00
2023-03-12T04:46:17.014Z,1.10
2023-03-12T04:48:48.937Z,1.10
2023-03-12T04:51:20.152Z,0.90
2023-03-12T04:53:52.964Z,1.10
2023-03-12T04:56:21.566Z,1.30
2023-03-12T04:58:53.152Z,1.30
2023-03-12T05:01:31.914Z,1.30
2023-03-12T05:04:00.619Z,1.00
2023-03-12T05:06:29.092Z,1.10
2023-03-12T05:08:57.719Z,1.00
2023-03-12T05:11:31.491Z,1.00
2023-03-12T05:14:01.896Z,1.30
2023-03-12T05:16:31.055Z,1.40
2023-03-12T05:19:02.518Z,1.10
2023-03-12T05:21:31.415Z,1.50
2023-03-12T05:24:04.559Z,1.10
2023-03-12T05:29:13.201Z,1.30
2023-03-12T05:31:50.867Z,1.00
2023-03-12T05:36:47.852Z,0.90
2023-03-12T05:39:19.279Z,0.90
2023-03-12T05:41:50.676Z,1.00
2023-03-12T05:44:19.893Z,0.80
2023-03-12T05:46:52.461Z,1.30
2023-03-12T05:51:53.954Z,1.10
2023-03-12T05:54:22.803Z,1.20
2023-03-12T05:56:56.229Z,1.30
2023-03-12T05:59:25.924Z,1.20
2023-03-12T06:01:54.664Z,1.40
2023-03-12T06:04:22.864Z,1.00
2023-03-12T06:06:52.707Z,1.00
2023-03-12T06:09:23.540Z,1.20
2023-03-12T06:11:55.092Z,1.40
2023-03-12T06:14:23.735Z,1.30
2023-03-12T06:16:52.685Z,1.70
2023-03-12T06:19:22.045Z,1.30
2023-03-12T06:21:55.759Z,1.40
2023-03-12T06:24:26.772Z,1.60
2023-03-12T06:27:00.071Z,1.50
2023-03-12T06:29:28.633Z,1.80
2023-03-12T06:31:57.027Z,1.60
2023-03-12T06:34:34.353Z,1.20
2023-03-12T06:37:02.604Z,1.60
2023-03-12T06:39:30.796Z,1.40
2023-03-12T06:41:59.543Z,1.50
2023-03-12T06:44:30.697Z,1.30
2023-03-12T06:46:59.440Z,1.60
2023-03-12T06:49:32.365Z,1.70
2023-03-12T06:52:00.476Z,2.10
2023-03-12T06:54:29.056Z,1.60
2023-03-12T06:56:59.466Z,1.30
2023-03-12T06:59:30.702Z,1.50
2023-03-12T07:01:59.165Z,1.70
2023-03-12T07:04:27.364Z,1.90
2023-03-12T07:06:55.553Z,1.60
2023-03-12T07:09:34.265Z,1.40
2023-03-12T07:12:04.385Z,1.70
2023-03-12T07:14:32.644Z,1.80
2023-03-12T07:17:02.560Z,1.50
2023-03-12T07:19:33.678Z,2.00
2023-03-12T07:22:07.027Z,1.70
2023-03-12T07:24:35.760Z,1.50
2023-03-12T07:27:04.320Z,1.30
2023-03-12T07:29:32.464Z,1.50
2023-03-12T07:32:00.838Z,1.40
2023-03-12T07:34:29.326Z,1.10
2023-03-12T07:37:01.108Z,1.50
2023-03-12T07:39:30.626Z,1.00
2023-03-12T07:42:03.251Z,1.40
2023-03-12T07:44:36.980Z,1.70
2023-03-12T07:47:22.753Z,1.10
2023-03-12T07:49:54.361Z,1.70
2023-03-12T07:52:26.171Z,1.50
2023-03-12T07:55:00.438Z,1.80
2023-03-12T07:57:30.956Z,1.70
2023-03-12T07:59:59.630Z,1.40
2023-03-12T08:02:29.030Z,1.10
2023-03-12T08:05:01.220Z,1.20
2023-03-12T08:10:11.987Z,1.30
2023-03-12T08:12:59.548Z,1.90
2023-03-12T08:15:28.870Z,1.10
2023-03-12T08:18:04.156Z,1.30
2023-03-12T08:20:34.658Z,1.60
2023-03-12T08:23:03.229Z,0.90
2023-03-12T08:25:31.751Z,0.90
2023-03-12T08:28:00.389Z,1.60
2023-03-12T08:30:30.286Z,1.10
2023-03-12T08:32:59.222Z,1.00
2023-03-12T08:35:27.641Z,1.40
2023-03-12T08:40:26.029Z,1.20
2023-03-12T08:42:54.319Z,0.80
2023-03-12T08:45:22.387Z,0.90
2023-03-12T08:47:50.723Z,0.80
2023-03-12T08:50:22.336Z,1.00
2023-03-12T08:52:50.539Z,0.70
2023-03-12T08:55:21.105Z,0.60
2023-03-12T08:57:55.443Z,1.10
2023-03-12T09:00:25.259Z,1.10
2023-03-12T09:02:54.544Z,0.70
2023-03-12T09:05:23.002Z,0.60
2023-03-12T09:07:51.274Z,0.60
2023-03-12T09:10:25.610Z,1.10
2023-03-12T09:12:53.799Z,0.70
2023-03-12T09:15:27.608Z,0.90
2023-03-12T09:17:57.680Z,0.40
2023-03-12T09:20:28.271Z,0.80
2023-03-12T09:23:00.507Z,0.60
2023-03-12T09:25:29.117Z,0.60
2023-03-12T09:32:16.580Z,0.60
2023-03-12T09:34:45.920Z,0.50
2023-03-12T09:37:15.177Z,0.50
2023-03-12T09:39:43.294Z,0.70
2023-03-12T09:42:26.028Z,0.70
2023-03-12T09:44:57.325Z,0.30
2023-03-12T09:47:37.133Z,0.60
2023-03-12T09:50:27.683Z,0.40
2023-03-12T09:53:17.381Z,0.50
2023-03-12T09:55:48.087Z,0.40
2023-03-12T09:58:31.819Z,0.50
2023-03-12T10:01:41.798Z,0.60
2023-03-12T10:04:21.478Z,0.70
2023-03-12T10:07:30.120Z,0.50
2023-03-12T10:10:16.018Z,0.30
2023-03-12T10:12:47.602Z,0.50
2023-03-12T10:15:40.899Z,0.40
2023-03-12T10:18:17.887Z,0.60
2023-03-12T10:20:54.060Z,0.90
2023-03-12T10:23:48.927Z,1.70
2023-03-12T10:26:32.293Z,0.30
2023-03-12T10:29:21.004Z,0.40
2023-03-12T10:31:56.501Z,0.60
2023-03-12T10:34:39.485Z,0.30
2023-03-12T10:37:31.403Z,0.40
2023-03-12T10:40:01.243Z,0.30
2023-03-12T10:42:30.227Z,0.30
2023-03-12T10:45:18.683Z,0.10
2023-03-12T10:47:57.442Z,0.30
2023-03-12T10:50:39.318Z,0.20
2023-03-12T10:53:13.634Z,0.40
2023-03-12T10:55:42.579Z,0.30
2023-03-12T10:58:38.287Z,0.20
2023-03-12T11:01:20.778Z,0.50
2023-03-12T11:03:51.328Z,0.50
2023-03-12T11:06:25.855Z,0.60
2023-03-12T11:09:20.840Z,0.40
2023-03-12T11:11:50.581Z,0.40
2023-03-12T11:14:22.741Z,0.50
2023-03-12T11:16:51.938Z,0.40
2023-03-12T11:19:30.620Z,0.30
2023-03-12T11:22:03.351Z,0.40
2023-03-12T11:24:32.064Z,0.30
2023-03-12T11:27:03.059Z,0.20
2023-03-12T11:29:33.408Z,0.30
2023-03-12T11:32:17.425Z,0.20
2023-03-12T11:34:49.542Z,0.30
2023-03-12T11:37:42.772Z,0.20
2023-03-12T11:43:05.270Z,0.20
2023-03-12T11:46:15.924Z,0.60
2023-03-12T11:48:48.042Z,0.40
2023-03-12T11:51:19.609Z,1.70
2023-03-12T11:53:50.680Z,0.60
2023-03-12T11:56:25.884Z,0.20
2023-03-12T11:59:39.150Z,0.40
2023-03-12T12:02:13.640Z,0.70
2023-03-12T12:04:54.484Z,0.50
2023-03-12T12:07:41.131Z,0.80
2023-03-12T12:10:09.273Z,0.50
2023-03-12T12:12:57.921Z,0.50
2023-03-12T12:15:44.007Z,0.70
2023-03-12T12:18:25.826Z,0.30
2023-03-12T12:21:03.250Z,3.10
2023-03-12T12:23:42.093Z,7.40
2023-03-12T12:26:14.570Z,1.30
2023-03-12T12:28:54.509Z,0.60
2023-03-12T12:31:22.706Z,0.30
2023-03-12T12:34:12.348Z,0.50
2023-03-12T12:36:42.012Z,1.10
2023-03-12T12:39:26.733Z,2.70
2023-03-12T12:41:55.932Z,2.20
2023-03-12T12:44:25.993Z,1.90
2023-03-12T12:46:58.845Z,0.70
2023-03-12T12:49:51.253Z,0.50
2023-03-12T12:52:20.745Z,0.90
2023-03-12T12:55:08.406Z,0.30
2023-03-12T13:00:44.563Z,0.30
2023-03-12T13:03:20.797Z,0.70
2023-03-12T13:05:56.661Z,0.50
2023-03-12T13:08:44.509Z,1.70
2023-03-12T13:11:20.056Z,3.10
2023-03-12T13:14:03.832Z,0.60
2023-03-12T13:16:33.764Z,0.20
2023-03-12T13:26:56.549Z,1.20
2023-03-12T13:29:31.476Z,1.80
2023-03-12T13:31:59.801Z,2.00
2023-03-12T13:34:28.380Z,0.80
2023-03-12T13:37:01.397Z,0.30
2023-03-12T13:39:36.280Z,0.30
2023-03-12T13:42:24.595Z,0.40
2023-03-12T13:44:53.718Z,0.50
2023-03-12T13:47:42.442Z,0.40
2023-03-12T13:50:16.953Z,0.40
2023-03-12T13:52:51.930Z,0.40
2023-03-12T13:55:28.396Z,0.30
2023-03-12T13:58:00.649Z,0.30
2023-03-12T14:00:59.953Z,0.30
2023-03-12T14:03:29.467Z,0.70
2023-03-12T14:06:10.218Z,0.40
2023-03-12T14:08:41.756Z,0.60
2023-03-12T14:11:23.823Z,0.80
2023-03-12T14:13:59.746Z,0.70
2023-03-12T14:16:35.127Z,0.70
2023-03-12T14:19:04.185Z,0.20
2023-03-12T14:21:40.049Z,0.60
2023-03-12T14:24:08.681Z,0.70
2023-03-12T14:26:37.077Z,0.50
2023-03-12T14:29:10.950Z,0.40
2023-03-12T14:31:39.404Z,1.20
2023-03-12T14:34:11.896Z,0.60
2023-03-12T14:37:00.500Z,0.50
2023-03-12T14:39:44.133Z,0.50
2023-03-12T14:42:26.260Z,0.70
2023-03-12T14:45:06.696Z,1.20
2023-03-12T14:47:42.510Z,0.90
2023-03-12T14:50:18.846Z,0.70
2023-03-12T14:52:53.800Z,0.50
2023-03-12T14:58:20.695Z,0.60
2023-03-12T15:01:06.137Z,1.80
2023-03-12T15:03:46.217Z,2.40
2023-03-12T15:06:28.624Z,2.00
2023-03-12T15:09:04.301Z,2.20
2023-03-12T15:11:36.157Z,1.20
2023-03-12T15:14:07.358Z,1.40
2023-03-12T15:16:38.321Z,1.40
2023-03-12T15:19:06.437Z,0.90
2023-03-12T15:21:36.723Z,1.60
2023-03-12T15:24:06.259Z,1.40
2023-03-12T15:26:38.348Z,2.00
2023-03-12T15:29:28.823Z,2.30
2023-03-12T15:31:58.947Z,5.20
2023-03-12T15:34:40.064Z,3.80
2023-03-12T15:37:38.428Z,1.30
2023-03-12T15:40:23.043Z,2.30
2023-03-12T15:42:53.146Z,2.80
2023-03-12T15:45:27.903Z,3.00
2023-03-12T15:47:56.327Z,1.60
2023-03-12T15:50:30.318Z,1.10
2023-03-12T15:53:07.726Z,0.70
2023-03-12T15:55:36.918Z,0.70
2023-03-12T15:58:25.070Z,1.10
2023-03-12T16:00:53.622Z,0.90
2023-03-12T16:03:25.013Z,1.00
2023-03-12T16:05:55.697Z,1.50
2023-03-12T16:08:35.011Z,1.00
2023-03-12T16:11:03.334Z,1.30
2023-03-12T16:13:33.441Z,1.90
2023-03-12T16:16:08.679Z,2.50
2023-03-12T16:18:40.475Z,3.10
2023-03-12T16:21:20.182Z,2.20
2023-03-12T16:23:50.218Z,2.50
2023-03-12T16:26:25.904Z,2.50
2023-03-12T16:28:54.156Z,2.60
2023-03-12T16:31:22.408Z,2.90
2023-03-12T16:33:58.177Z,2.70
2023-03-12T16:36:26.598Z,2.80
2023-03-12T16:38:54.829Z,3.60
2023-03-12T16:41:22.947Z,2.50
2023-03-12T16:43:51.741Z,2.80
2023-03-12T16:46:21.160Z,2.40
2023-03-12T16:48:52.906Z,3.40
2023-03-12T16:51:21.466Z,3.20
2023-03-12T16:54:06.789Z,4.30
2023-03-12T16:56:36.882Z,6.50
2023-03-12T16:59:08.774Z,5.10
2023-03-12T17:01:37.549Z,6.00
2023-03-12T17:04:11.737Z,6.50
2023-03-12T17:06:41.485Z,8.70
2023-03-12T17:09:09.592Z,8.70
2023-03-12T17:11:43.913Z,9.30
2023-03-12T17:14:17.126Z,9.40
2023-03-12T17:19:15.090Z,7.50
2023-03-12T17:21:43.568Z,9.10
2023-03-12T17:24:16.676Z,10.60
2023-03-12T17:26:48.936Z,10.80
2023-03-12T17:29:17.059Z,10.00
2023-03-12T17:31:45.259Z,9.80
2023-03-12T17:34:13.594Z,7.70
2023-03-12T17:36:46.092Z,4.60
2023-03-12T17:39:15.013Z,5.30
2023-03-12T17:41:46.189Z,4.10
2023-03-12T17:44:16.106Z,4.30
2023-03-12T17:46:58.426Z,3.90
2023-03-12T17:49:31.455Z,3.40
2023-03-12T17:52:03.468Z,3.80
2023-03-12T17:54:31.971Z,3.60
2023-03-12T17:57:02.575Z,5.30
2023-03-12T17:59:30.898Z,4.60
2023-03-12T18:02:00.107Z,3.90
2023-03-12T18:04:28.733Z,4.30
2023-03-12T18:06:59.385Z,4.30
2023-03-12T18:09:27.689Z,4.60
2023-03-12T18:11:59.194Z,3.40
2023-03-12T18:14:32.642Z,3.30
2023-03-12T18:17:01.518Z,2.60
2023-03-12T18:19:35.534Z,2.20
2023-03-12T18:22:07.404Z,3.10
2023-03-12T18:24:37.400Z,3.90
2023-03-12T18:27:10.810Z,3.50
2023-03-12T18:29:41.495Z,3.10
2023-03-12T18:32:10.522Z,3.80
2023-03-12T18:34:42.635Z,2.90
2023-03-12T18:37:18.101Z,3.20
2023-03-12T18:39:48.279Z,2.90
2023-03-12T18:42:16.666Z,4.20
2023-03-12T18:44:45.374Z,7.10
2023-03-12T18:47:15.149Z,6.20
2023-03-12T18:49:43.239Z,6.10
2023-03-12T18:52:12.572Z,5.90
2023-03-12T18:54:42.466Z,7.10
2023-03-12T18:57:15.753Z,5.90
2023-03-12T18:59:46.232Z,5.70
2023-03-12T19:02:16.926Z,5.80
2023-03-12T19:04:51.914Z,5.90
2023-03-12T19:07:21.640Z,7.70
2023-03-12T19:09:49.949Z,9.20
2023-03-12T19:12:18.959Z,13.30
2023-03-12T19:14:49.172Z,13.80
2023-03-12T19:17:18.046Z,16.40
2023-03-12T19:19:47.370Z,16.90
2023-03-12T19:22:17.750Z,11.90
2023-03-12T19:24:55.336Z,11.40
2023-03-12T19:27:29.732Z,9.80
2023-03-12T19:29:59.236Z,9.60
2023-03-12T19:32:33.225Z,7.60
2023-03-12T19:35:17.677Z,7.10
2023-03-12T19:37:49.360Z,6.90
2023-03-12T19:40:17.988Z,7.80
2023-03-12T19:42:48.661Z,9.60
2023-03-12T19:45:22.036Z,12.60
2023-03-12T19:47:52.302Z,16.50
2023-03-12T19:50:20.651Z,20.00
2023-03-12T19:52:54.869Z,14.10
2023-03-12T19:55:28.235Z,17.70
2023-03-12T20:00:25.249Z,12.60
2023-03-12T20:02:58.816Z,7.00
2023-03-12T20:05:27.042Z,5.50
2023-03-12T20:07:55.962Z,5.40
2023-03-12T20:10:26.144Z,5.90
2023-03-12T20:12:59.647Z,5.30
2023-03-12T20:15:31.473Z,4.60
2023-03-12T20:18:05.213Z,4.00
2023-03-12T20:20:38.040Z,4.50
2023-03-12T20:23:06.578Z,6.90
2023-03-12T20:25:39.394Z,5.80
2023-03-12T20:28:10.830Z,7.30
2023-03-12T20:30:42.611Z,5.00
2023-03-12T20:33:10.797Z,5.70
2023-03-12T20:35:41.212Z,5.70
2023-03-12T20:38:09.647Z,4.10
2023-03-12T20:40:39.153Z,4.60
2023-03-12T20:43:07.389Z,5.00
2023-03-12T20:45:42.125Z,4.70
2023-03-12T20:48:10.894Z,4.80
2023-03-12T20:50:39.622Z,4.60
2023-03-12T20:53:07.918Z,4.70
2023-03-12T20:58:05.137Z,4.10
2023-03-12T21:00:37.953Z,3.90
2023-03-12T21:03:06.444Z,3.80
2023-03-12T21:05:34.558Z,3.30
2023-03-12T21:08:07.342Z,3.20
2023-03-12T21:10:36.886Z,3.50
2023-03-12T21:13:06.189Z,3.20
2023-03-12T21:15:37.932Z,3.00
2023-03-12T21:18:06.532Z,3.50
2023-03-12T21:20:42.333Z,3.30
2023-03-12T21:23:13.534Z,2.60
2023-03-12T21:25:42.312Z,2.70
2023-03-12T21:28:11.305Z,2.40
2023-03-12T21:30:40.188Z,2.50
2023-03-12T21:33:08.870Z,2.50
2023-03-12T21:35:38.242Z,2.30
2023-03-12T21:38:10.277Z,2.00
2023-03-12T21:40:38.917Z,2.30
2023-03-12T21:43:07.094Z,2.60
2023-03-12T21:45:35.714Z,2.40
2023-03-12T21:48:04.325Z,2.90
2023-03-12T21:53:21.220Z,2.80
2023-03-12T21:55:59.029Z,3.00
2023-03-12T21:58:27.552Z,2.70
2023-03-12T22:01:07.137Z,3.00
2023-03-12T22:03:35.788Z,3.30
2023-03-12T22:06:05.909Z,3.90
2023-03-12T22:08:34.443Z,5.30
2023-03-12T22:11:04.811Z,6.30
2023-03-12T22:13:32.975Z,6.80
2023-03-12T22:16:06.974Z,7.60
2023-03-12T22:18:41.232Z,9.30
2023-03-12T22:21:14.216Z,9.70
2023-03-12T22:23:44.579Z,10.20
2023-03-12T22:26:12.611Z,11.80
2023-03-12T22:28:47.414Z,8.60
2023-03-12T22:31:15.682Z,9.80
2023-03-12T22:33:43.958Z,8.90
2023-03-12T22:36:13.473Z,8.60
2023-03-12T22:38:42.130Z,8.50
2023-03-12T22:41:13.148Z,8.20
2023-03-12T22:43:45.925Z,7.70
2023-03-12T22:46:17.015Z,8.40
2023-03-12T22:48:47.727Z,8.50
2023-03-12T22:51:15.903Z,9.30
2023-03-12T22:53:44.020Z,8.40
2023-03-12T22:56:12.823Z,9.70
2023-03-12T22:58:43.170Z,8.90
2023-03-12T23:01:13.791Z,7.90
2023-03-12T23:03:43.296Z,7.40
2023-03-12T23:06:19.158Z,7.40
2023-03-12T23:08:48.096Z,7.60
2023-03-12T23:11:25.587Z,7.10
2023-03-12T23:13:54.452Z,6.80
2023-03-12T23:16:24.335Z,6.80
2023-03-12T23:18:54.417Z,6.60
2023-03-12T23:21:23.129Z,6.00
2023-03-12T23:23:51.823Z,6.10
2023-03-12T23:26:22.685Z,6.10
2023-03-12T23:28:53.543Z,6.60
2023-03-12T23:31:27.695Z,7.00
2023-03-12T23:33:58.552Z,6.40
2023-03-12T23:36:31.986Z,7.60
2023-03-12T23:39:00.399Z,7.10
2023-03-12T23:41:31.632Z,7.40
2023-03-12T23:44:00.007Z,7.60
2023-03-12T23:46:28.334Z,7.60
2023-03-12T23:48:59.337Z,7.10
2023-03-12T23:51:29.348Z,6.90
2023-03-12T23:54:02.102Z,6.50
2023-03-12T23:56:37.965Z,6.20
2023-03-12T23:59:07.382Z,6.30
